HKE622 VHHH-RJTT
Flight info
| Callsign | HKE622 |
|---|---|
| Flight time | N/A |
| Altitude | 33000 |
| Route | DALOL V631 ENVAR M750 BILLY Y21 AKSEL |
| Aircraft | A20N/M-SDE2E3FGHIRWXY/LB1 |
Departure
| Time | 2026-05-06 11:01 |
|---|---|
| Airport | Hong Kong International Airport (VHHH) |
Arrival
| Time | N/A |
|---|---|
| Airport | Tokyo Haneda International Airport (RJTT) |
| Time | Latitude | Longitude | Altitude | Speed | Heading |
|---|---|---|---|---|---|
| 2026-05-06 10:42 | 22.31133 | 113.92608 | 3 ft | 0 kts | 115° |
| 2026-05-06 10:48 | 22.31139 | 113.92596 | 30 ft | 4 kts | 118° |
| 2026-05-06 10:48 | 22.31153 | 113.92571 | 30 ft | 4 kts | 124° |
| 2026-05-06 10:49 | 22.31169 | 113.92547 | 30 ft | 4 kts | 130° |
| 2026-05-06 10:49 | 22.31187 | 113.92526 | 30 ft | 4 kts | 135° |
| 2026-05-06 10:49 | 22.31207 | 113.92506 | 30 ft | 4 kts | 140° |
| 2026-05-06 10:49 | 22.31228 | 113.92488 | 30 ft | 4 kts | 143° |
| 2026-05-06 10:50 | 22.31250 | 113.92470 | 30 ft | 4 kts | 137° |
| 2026-05-06 10:50 | 22.31261 | 113.92457 | 30 ft | 0 kts | 115° |
| 2026-05-06 10:52 | 22.31259 | 113.92462 | 30 ft | 2 kts | 115° |
| 2026-05-06 10:52 | 22.31245 | 113.92500 | 30 ft | 9 kts | 111° |
| 2026-05-06 10:53 | 22.31180 | 113.92508 | 30 ft | 14 kts | 206° |
| 2026-05-06 10:53 | 22.31069 | 113.92448 | 30 ft | 21 kts | 206° |
| 2026-05-06 10:53 | 22.30940 | 113.92383 | 30 ft | 19 kts | 204° |
| 2026-05-06 10:53 | 22.30847 | 113.92336 | 30 ft | 15 kts | 205° |
| 2026-05-06 10:54 | 22.30752 | 113.92351 | 31 ft | 15 kts | 161° |
| 2026-05-06 10:54 | 22.30655 | 113.92377 | 31 ft | 14 kts | 183° |
| 2026-05-06 10:54 | 22.30614 | 113.92304 | 31 ft | 12 kts | 251° |
| 2026-05-06 10:54 | 22.30581 | 113.92211 | 31 ft | 15 kts | 250° |
| 2026-05-06 10:55 | 22.30544 | 113.92099 | 31 ft | 17 kts | 250° |
| 2026-05-06 10:55 | 22.30503 | 113.91975 | 31 ft | 19 kts | 250° |
| 2026-05-06 10:55 | 22.30459 | 113.91838 | 31 ft | 21 kts | 251° |
| 2026-05-06 10:55 | 22.30411 | 113.91688 | 30 ft | 21 kts | 251° |
| 2026-05-06 10:56 | 22.30361 | 113.91534 | 30 ft | 22 kts | 250° |
| 2026-05-06 10:56 | 22.30312 | 113.91376 | 30 ft | 23 kts | 252° |
| 2026-05-06 10:56 | 22.30260 | 113.91209 | 30 ft | 24 kts | 251° |
| 2026-05-06 10:56 | 22.30207 | 113.91047 | 30 ft | 22 kts | 250° |
| 2026-05-06 10:57 | 22.30154 | 113.90885 | 30 ft | 24 kts | 250° |
| 2026-05-06 10:57 | 22.30103 | 113.90715 | 30 ft | 24 kts | 252° |
| 2026-05-06 10:57 | 22.30048 | 113.90539 | 29 ft | 25 kts | 250° |
| 2026-05-06 10:57 | 22.29988 | 113.90360 | 29 ft | 25 kts | 249° |
| 2026-05-06 10:58 | 22.29931 | 113.90190 | 29 ft | 23 kts | 251° |
| 2026-05-06 10:58 | 22.29879 | 113.90025 | 29 ft | 23 kts | 251° |
| 2026-05-06 10:58 | 22.29829 | 113.89874 | 30 ft | 21 kts | 250° |
| 2026-05-06 10:58 | 22.29780 | 113.89762 | 30 ft | 12 kts | 207° |
| 2026-05-06 10:59 | 22.29701 | 113.89779 | 30 ft | 12 kts | 160° |
| 2026-05-06 10:59 | 22.29638 | 113.89836 | 30 ft | 12 kts | 94° |
| 2026-05-06 10:59 | 22.29660 | 113.89924 | 29 ft | 11 kts | 70° |
| 2026-05-06 10:59 | 22.29688 | 113.90009 | 29 ft | 15 kts | 70° |
| 2026-05-06 11:00 | 22.29786 | 113.90319 | 27 ft | 77 kts | 71° |
| 2026-05-06 11:00 | 22.30028 | 113.91063 | 31 ft | 131 kts | 71° |
| 2026-05-06 11:00 | 22.30377 | 113.92153 | 54 ft | 171 kts | 72° |
| 2026-05-06 11:00 | 22.30712 | 113.93188 | 415 ft | 176 kts | 73° |
| 2026-05-06 11:01 | 22.31103 | 113.94437 | 1043 ft | 175 kts | 74° |
| 2026-05-06 11:01 | 22.31499 | 113.95673 | 1747 ft | 173 kts | 73° |
| 2026-05-06 11:01 | 22.31899 | 113.96899 | 2365 ft | 175 kts | 73° |
| 2026-05-06 11:01 | 22.32312 | 113.98177 | 2810 ft | 188 kts | 73° |
| 2026-05-06 11:02 | 22.32766 | 113.99595 | 3141 ft | 212 kts | 73° |
| 2026-05-06 11:02 | 22.33271 | 114.01168 | 3553 ft | 228 kts | 72° |
| 2026-05-06 11:02 | 22.33795 | 114.02820 | 4191 ft | 239 kts | 77° |
| 2026-05-06 11:02 | 22.33822 | 114.04568 | 4838 ft | 242 kts | 108° |
| 2026-05-06 11:03 | 22.33037 | 114.06170 | 5549 ft | 244 kts | 131° |
| 2026-05-06 11:03 | 22.31796 | 114.07432 | 6231 ft | 249 kts | 150° |
| 2026-05-06 11:03 | 22.30234 | 114.08216 | 6902 ft | 248 kts | 167° |
| 2026-05-06 11:03 | 22.28556 | 114.08583 | 7589 ft | 250 kts | 176° |
| 2026-05-06 11:04 | 22.26814 | 114.08711 | 8268 ft | 252 kts | 182° |
| 2026-05-06 11:04 | 22.25077 | 114.08729 | 8950 ft | 255 kts | 184° |
| 2026-05-06 11:04 | 22.23280 | 114.08708 | 9533 ft | 265 kts | 185° |
| 2026-05-06 11:04 | 22.21357 | 114.08666 | 9763 ft | 288 kts | 185° |
| 2026-05-06 11:05 | 22.19306 | 114.08630 | 10155 ft | 302 kts | 184° |
| 2026-05-06 11:05 | 22.17177 | 114.08950 | 10336 ft | 328 kts | 163° |
| 2026-05-06 11:05 | 22.15136 | 114.10211 | 10519 ft | 352 kts | 140° |
| 2026-05-06 11:05 | 22.13583 | 114.12305 | 10944 ft | 364 kts | 119° |
| 2026-05-06 11:06 | 22.12526 | 114.14800 | 11554 ft | 369 kts | 112° |
| 2026-05-06 11:06 | 22.11565 | 114.17383 | 12166 ft | 372 kts | 112° |
| 2026-05-06 11:06 | 22.10540 | 114.19957 | 12792 ft | 376 kts | 114° |
| 2026-05-06 11:06 | 22.09425 | 114.22527 | 13392 ft | 380 kts | 116° |
| 2026-05-06 11:07 | 22.08118 | 114.25011 | 13963 ft | 383 kts | 126° |
| 2026-05-06 11:07 | 22.06366 | 114.27171 | 14531 ft | 383 kts | 139° |
| 2026-05-06 11:07 | 22.04272 | 114.28945 | 15095 ft | 384 kts | 146° |
| 2026-05-06 11:07 | 22.02134 | 114.30611 | 15668 ft | 386 kts | 146° |
| 2026-05-06 11:08 | 21.99958 | 114.32318 | 16199 ft | 388 kts | 146° |
| 2026-05-06 11:08 | 21.97768 | 114.34042 | 16744 ft | 391 kts | 146° |
| 2026-05-06 11:08 | 21.95570 | 114.35774 | 17265 ft | 393 kts | 146° |
| 2026-05-06 11:08 | 21.93384 | 114.37497 | 17798 ft | 395 kts | 146° |
| 2026-05-06 11:09 | 21.91134 | 114.39268 | 18304 ft | 397 kts | 146° |
| 2026-05-06 11:09 | 21.88900 | 114.41026 | 18728 ft | 400 kts | 146° |
| 2026-05-06 11:09 | 21.86707 | 114.42892 | 19109 ft | 405 kts | 137° |
| 2026-05-06 11:09 | 21.84938 | 114.45275 | 19500 ft | 412 kts | 122° |
| 2026-05-06 11:10 | 21.83783 | 114.48108 | 19897 ft | 418 kts | 107° |
| 2026-05-06 11:10 | 21.83004 | 114.51138 | 20279 ft | 422 kts | 106° |
| 2026-05-06 11:10 | 21.82228 | 114.54191 | 20680 ft | 425 kts | 106° |
| 2026-05-06 11:10 | 21.81452 | 114.57225 | 21069 ft | 428 kts | 107° |
| 2026-05-06 11:11 | 21.80655 | 114.60324 | 21456 ft | 431 kts | 107° |
| 2026-05-06 11:11 | 21.79850 | 114.63443 | 21849 ft | 434 kts | 107° |
| 2026-05-06 11:11 | 21.79037 | 114.66583 | 22269 ft | 437 kts | 107° |
| 2026-05-06 11:11 | 21.78218 | 114.69744 | 22638 ft | 440 kts | 107° |
| 2026-05-06 11:12 | 21.77391 | 114.72929 | 23017 ft | 444 kts | 107° |
| 2026-05-06 11:12 | 21.76559 | 114.76134 | 23397 ft | 447 kts | 107° |
| 2026-05-06 11:12 | 21.75720 | 114.79362 | 23737 ft | 450 kts | 107° |
| 2026-05-06 11:12 | 21.74922 | 114.82573 | 24090 ft | 452 kts | 103° |
| 2026-05-06 11:13 | 21.74440 | 114.85917 | 24433 ft | 454 kts | 95° |
| 2026-05-06 11:13 | 21.74348 | 114.89279 | 24755 ft | 457 kts | 90° |
| 2026-05-06 11:13 | 21.74363 | 114.92698 | 25086 ft | 459 kts | 90° |
| 2026-05-06 11:13 | 21.74368 | 114.96138 | 25409 ft | 461 kts | 90° |
| 2026-05-06 11:14 | 21.74368 | 114.99592 | 25731 ft | 463 kts | 90° |
| 2026-05-06 11:14 | 21.74366 | 115.03061 | 26046 ft | 465 kts | 90° |
| 2026-05-06 11:14 | 21.74363 | 115.06547 | 26356 ft | 467 kts | 90° |
| 2026-05-06 11:14 | 21.74360 | 115.10045 | 26669 ft | 469 kts | 90° |
| 2026-05-06 11:15 | 21.74356 | 115.13558 | 26969 ft | 471 kts | 90° |
| 2026-05-06 11:15 | 21.74352 | 115.17088 | 27265 ft | 473 kts | 90° |
| 2026-05-06 11:15 | 21.74347 | 115.20628 | 27557 ft | 475 kts | 90° |
| 2026-05-06 11:15 | 21.74341 | 115.24184 | 27839 ft | 476 kts | 90° |
| 2026-05-06 11:16 | 21.74335 | 115.27755 | 28126 ft | 478 kts | 90° |
| 2026-05-06 11:16 | 21.74327 | 115.31288 | 28401 ft | 480 kts | 90° |
| 2026-05-06 11:16 | 21.74319 | 115.34883 | 28669 ft | 482 kts | 90° |
| 2026-05-06 11:16 | 21.74310 | 115.38494 | 28936 ft | 483 kts | 90° |
| 2026-05-06 11:17 | 21.74300 | 115.42115 | 29202 ft | 485 kts | 90° |
| 2026-05-06 11:17 | 21.74290 | 115.45748 | 29453 ft | 487 kts | 90° |
| 2026-05-06 11:17 | 21.74278 | 115.49394 | 29710 ft | 489 kts | 90° |
| 2026-05-06 11:17 | 21.74266 | 115.53047 | 29963 ft | 490 kts | 90° |
| 2026-05-06 11:18 | 21.74253 | 115.56721 | 30184 ft | 492 kts | 90° |
| 2026-05-06 11:18 | 21.74239 | 115.60409 | 30414 ft | 493 kts | 90° |
| 2026-05-06 11:18 | 21.74225 | 115.64107 | 30635 ft | 495 kts | 90° |
| 2026-05-06 11:18 | 21.74210 | 115.67764 | 30851 ft | 497 kts | 90° |
| 2026-05-06 11:19 | 21.74196 | 115.71485 | 31096 ft | 498 kts | 90° |
| 2026-05-06 11:19 | 21.74180 | 115.75212 | 31396 ft | 497 kts | 90° |
| 2026-05-06 11:19 | 21.74163 | 115.78927 | 31710 ft | 497 kts | 90° |
| 2026-05-06 11:19 | 21.74145 | 115.82633 | 32008 ft | 496 kts | 90° |
| 2026-05-06 11:20 | 21.74126 | 115.86336 | 32298 ft | 495 kts | 90° |
| 2026-05-06 11:20 | 21.74106 | 115.90045 | 32587 ft | 495 kts | 90° |
| 2026-05-06 11:20 | 21.74086 | 115.93744 | 32851 ft | 494 kts | 89° |
| 2026-05-06 11:21 | 21.74043 | 116.01116 | 32959 ft | 492 kts | 89° |
| 2026-05-06 11:21 | 21.73998 | 116.08426 | 32960 ft | 492 kts | 89° |
| 2026-05-06 11:22 | 21.73950 | 116.15782 | 32959 ft | 492 kts | 90° |
| 2026-05-06 11:22 | 21.73898 | 116.23143 | 32965 ft | 492 kts | 90° |
| 2026-05-06 11:23 | 21.73843 | 116.30508 | 32958 ft | 492 kts | 90° |
| 2026-05-06 11:23 | 21.73784 | 116.37852 | 32950 ft | 491 kts | 90° |
| 2026-05-06 11:24 | 21.73723 | 116.45138 | 32952 ft | 490 kts | 90° |
| 2026-05-06 11:24 | 21.73659 | 116.52467 | 32946 ft | 490 kts | 90° |
| 2026-05-06 11:25 | 21.73591 | 116.59782 | 32948 ft | 489 kts | 90° |
| 2026-05-06 11:25 | 21.73532 | 116.65866 | 32945 ft | 489 kts | 90° |
| 2026-05-06 11:26 | 21.73465 | 116.73185 | 32950 ft | 489 kts | 88° |
| 2026-05-06 11:26 | 21.74622 | 116.81545 | 32956 ft | 486 kts | 72° |
| 2026-05-06 11:27 | 21.76986 | 116.88348 | 32957 ft | 485 kts | 67° |
| 2026-05-06 11:27 | 21.79439 | 116.95122 | 32954 ft | 486 kts | 67° |
| 2026-05-06 11:28 | 21.81467 | 117.00741 | 32958 ft | 486 kts | 67° |
| 2026-05-06 11:28 | 21.83922 | 117.07544 | 32963 ft | 487 kts | 67° |
| 2026-05-06 11:29 | 21.86373 | 117.14342 | 32967 ft | 487 kts | 67° |
| 2026-05-06 11:29 | 21.88808 | 117.21104 | 32969 ft | 488 kts | 67° |
| 2026-05-06 11:30 | 21.91257 | 117.27915 | 32978 ft | 488 kts | 67° |
| 2026-05-06 11:30 | 21.93705 | 117.34735 | 32988 ft | 488 kts | 67° |
| 2026-05-06 11:31 | 21.96147 | 117.41548 | 32973 ft | 489 kts | 67° |
| 2026-05-06 11:31 | 21.98613 | 117.48378 | 32971 ft | 488 kts | 65° |
| 2026-05-06 11:32 | 22.01876 | 117.54756 | 32973 ft | 486 kts | 56° |
| 2026-05-06 11:32 | 22.05408 | 117.60958 | 32973 ft | 486 kts | 56° |
| 2026-05-06 11:33 | 22.08907 | 117.67131 | 32972 ft | 486 kts | 56° |
| 2026-05-06 11:33 | 22.12426 | 117.73342 | 32981 ft | 485 kts | 56° |
| 2026-05-06 11:34 | 22.15945 | 117.79559 | 32974 ft | 486 kts | 56° |
| 2026-05-06 11:34 | 22.19462 | 117.85777 | 32975 ft | 485 kts | 56° |
| 2026-05-06 11:35 | 22.22977 | 117.92000 | 32977 ft | 485 kts | 56° |
| 2026-05-06 11:35 | 22.26463 | 117.98179 | 32975 ft | 485 kts | 56° |
| 2026-05-06 11:36 | 22.30003 | 118.04377 | 32978 ft | 485 kts | 56° |
| 2026-05-06 11:36 | 22.33613 | 118.10527 | 32976 ft | 484 kts | 55° |
| 2026-05-06 11:37 | 22.37211 | 118.16678 | 32976 ft | 484 kts | 55° |
| 2026-05-06 11:37 | 22.40775 | 118.22802 | 32970 ft | 485 kts | 56° |
| 2026-05-06 11:38 | 22.44299 | 118.29012 | 32972 ft | 485 kts | 56° |
| 2026-05-06 11:38 | 22.44891 | 118.30061 | 32973 ft | 485 kts | 56° |